createdAt,value
2022-11-14T00:01:26.871Z,101298.38
2022-11-14T00:04:14.667Z,101295.78
2022-11-14T00:07:01.780Z,101298.44
2022-11-14T00:09:48.845Z,101294.94
2022-11-14T00:12:36.128Z,101300.19
2022-11-14T00:15:23.512Z,101299.38
2022-11-14T00:18:13.736Z,101299.41
2022-11-14T00:21:00.383Z,101298.56
2022-11-14T00:23:47.829Z,101301.22
2022-11-14T00:26:35.266Z,101295.97
2022-11-14T00:29:23.057Z,101304.66
2022-11-14T00:32:10.085Z,101310.75
2022-11-14T00:34:59.092Z,101305.56
2022-11-14T00:37:45.640Z,101296.81
2022-11-14T00:40:33.444Z,101298.63
2022-11-14T00:43:20.640Z,101301.22
2022-11-14T00:46:07.770Z,101295.09
2022-11-14T00:48:54.879Z,101300.28
2022-11-14T00:51:43.432Z,101304.63
2022-11-14T00:54:30.957Z,101299.41
2022-11-14T00:57:18.307Z,101300.28
2022-11-14T01:00:06.698Z,101295.06
2022-11-14T01:02:56.938Z,101299.41
2022-11-14T01:05:49.830Z,101294.25
2022-11-14T01:08:38.828Z,101289.91
2022-11-14T01:11:26.233Z,101285.44
2022-11-14T01:14:13.415Z,101278.53
2022-11-14T01:17:00.442Z,101275.91
2022-11-14T01:19:47.664Z,101274.16
2022-11-14T01:22:34.682Z,101271.56
2022-11-14T01:25:22.930Z,101251.53
2022-11-14T01:28:11.038Z,101265.44
2022-11-14T01:30:58.291Z,101256.69
2022-11-14T01:33:45.656Z,101254.97
2022-11-14T01:36:32.407Z,101247.19
2022-11-14T01:39:19.490Z,101244.56
2022-11-14T01:42:07.950Z,101245.47
2022-11-14T01:44:55.186Z,101241.13
2022-11-14T01:47:43.374Z,101241.13
2022-11-14T01:50:30.522Z,101229.81
2022-11-14T01:53:17.682Z,101235.06
2022-11-14T01:56:08.784Z,101229.88
2022-11-14T01:59:03.401Z,101227.28
2022-11-14T02:01:53.387Z,101222.06
2022-11-14T02:04:44.422Z,101226.41
2022-11-14T02:07:35.752Z,101222.09
2022-11-14T02:10:23.454Z,101221.25
2022-11-14T02:13:10.677Z,101222.09
2022-11-14T02:15:59.243Z,101224.69
2022-11-14T02:18:45.924Z,101222.09
2022-11-14T02:21:34.550Z,101220.34
2022-11-14T02:24:21.492Z,101215.16
2022-11-14T02:27:09.917Z,101213.47
2022-11-14T02:30:05.447Z,101210.03
2022-11-14T02:35:59.898Z,101208.38
2022-11-14T02:38:48.259Z,101214.47
2022-11-14T02:41:35.511Z,101210.06
2022-11-14T02:44:22.347Z,101204.03
2022-11-14T02:47:09.265Z,101199.66
2022-11-14T02:49:56.476Z,101197.88
2022-11-14T02:52:43.531Z,101185.75
2022-11-14T02:55:31.803Z,101198.81
2022-11-14T02:58:19.026Z,101197.94
2022-11-14T03:01:20.276Z,101190.97
2022-11-14T03:04:08.230Z,101194.41
2022-11-14T03:06:55.364Z,101190.06
2022-11-14T03:09:42.263Z,101188.25
2022-11-14T03:12:30.700Z,101187.38
2022-11-14T03:15:17.581Z,101187.38
2022-11-14T03:18:07.381Z,101176.13
2022-11-14T03:20:54.464Z,101178.75
2022-11-14T03:23:41.610Z,101183.94
2022-11-14T03:26:28.692Z,101171.78
2022-11-14T03:29:16.861Z,101167.41
2022-11-14T03:32:03.698Z,101178.72
2022-11-14T03:34:50.515Z,101176.13
2022-11-14T03:37:37.613Z,101168.28
2022-11-14T03:40:24.689Z,101163.06
2022-11-14T03:43:12.227Z,101151.75
2022-11-14T03:46:01.308Z,101145.66
2022-11-14T03:48:48.943Z,101143.91
2022-11-14T03:51:36.834Z,101145.66
2022-11-14T03:54:23.857Z,101134.31
2022-11-14T03:57:11.066Z,101139.50
2022-11-14T03:59:58.137Z,101134.28
2022-11-14T04:02:46.796Z,101135.22
2022-11-14T04:05:34.681Z,101142.16
2022-11-14T04:08:21.953Z,101141.34
2022-11-14T04:11:11.431Z,101137.84
2022-11-14T04:13:59.112Z,101143.97
2022-11-14T04:16:45.811Z,101147.41
2022-11-14T04:19:34.063Z,101142.28
2022-11-14T04:22:21.510Z,101142.28
2022-11-14T04:25:10.072Z,101145.72
2022-11-14T04:27:57.011Z,101130.06
2022-11-14T04:30:45.324Z,101133.53
2022-11-14T04:33:32.598Z,101131.81
2022-11-14T04:36:20.807Z,101134.34
2022-11-14T04:39:07.883Z,101131.75
2022-11-14T04:41:54.651Z,101130.91
2022-11-14T04:44:41.726Z,101142.19
2022-11-14T04:47:28.959Z,101138.72
2022-11-14T04:50:16.624Z,101134.34
2022-11-14T04:53:05.372Z,101133.53
2022-11-14T04:55:53.306Z,101124.00
2022-11-14T04:58:40.196Z,101123.13
2022-11-14T05:01:27.147Z,101119.69
2022-11-14T05:04:14.245Z,101125.75
2022-11-14T05:07:01.361Z,101120.50
2022-11-14T05:09:49.976Z,101122.25
2022-11-14T05:12:37.168Z,101117.91
2022-11-14T05:15:24.279Z,101123.16
2022-11-14T05:18:11.213Z,101117.13
2022-11-14T05:21:00.563Z,101125.84
2022-11-14T05:23:48.284Z,101125.00
2022-11-14T05:26:37.591Z,101116.34
2022-11-14T05:29:24.928Z,101123.38
2022-11-14T05:32:16.128Z,101123.31
2022-11-14T05:35:03.236Z,101125.06
2022-11-14T05:37:50.348Z,101132.94
2022-11-14T05:40:38.968Z,101132.06
2022-11-14T05:43:30.266Z,101130.34
2022-11-14T05:46:17.711Z,101130.41
2022-11-14T05:49:05.455Z,101119.09
2022-11-14T05:51:52.865Z,101125.22
2022-11-14T05:54:40.379Z,101128.75
2022-11-14T05:57:27.358Z,101130.56
2022-11-14T06:00:18.281Z,101138.31
2022-11-14T06:03:05.515Z,101134.88
2022-11-14T06:05:52.719Z,101129.63
2022-11-14T06:08:40.270Z,101134.03
2022-11-14T06:11:28.648Z,101141.84
2022-11-14T06:14:16.038Z,101142.72
2022-11-14T06:17:05.375Z,101140.13
2022-11-14T06:19:52.361Z,101141.81
2022-11-14T06:22:40.061Z,101143.56
2022-11-14T06:25:27.038Z,101141.81
2022-11-14T06:28:14.246Z,101139.22
2022-11-14T06:31:02.355Z,101134.78
2022-11-14T06:33:51.255Z,101135.69
2022-11-14T06:36:39.315Z,101136.56
2022-11-14T06:39:27.174Z,101141.84
2022-11-14T06:42:16.821Z,101143.69
2022-11-14T06:45:03.935Z,101144.47
2022-11-14T06:47:51.183Z,101146.28
2022-11-14T06:50:39.722Z,101148.84
2022-11-14T06:53:28.127Z,101144.53
2022-11-14T06:56:16.392Z,101132.31
2022-11-14T06:59:04.447Z,101146.22
2022-11-14T07:01:51.530Z,101141.03
2022-11-14T07:04:38.559Z,101133.19
2022-11-14T07:07:28.810Z,101135.81
2022-11-14T07:10:16.046Z,101136.69
2022-11-14T07:13:03.134Z,101144.53
2022-11-14T07:15:53.193Z,101134.94
2022-11-14T07:18:40.271Z,101132.31
2022-11-14T07:21:28.795Z,101137.53
2022-11-14T07:24:18.135Z,101141.03
2022-11-14T07:27:11.089Z,101141.03
2022-11-14T07:29:58.115Z,101138.44
2022-11-14T07:32:45.219Z,101142.75
2022-11-14T07:35:32.202Z,101138.41
2022-11-14T07:38:19.288Z,101145.31
2022-11-14T07:41:10.191Z,101147.91
2022-11-14T07:43:57.351Z,101151.38
2022-11-14T07:46:45.099Z,101150.47
2022-11-14T07:49:32.017Z,101145.22
2022-11-14T07:52:19.047Z,101146.09
2022-11-14T07:55:06.745Z,101136.44
2022-11-14T07:57:56.321Z,101140.78
2022-11-14T08:00:43.548Z,101132.91
2022-11-14T08:03:31.324Z,101130.19
2022-11-14T08:06:18.251Z,101128.44
2022-11-14T08:10:07.647Z,101123.22
2022-11-14T08:13:29.782Z,101113.59
2022-11-14T08:16:13.315Z,101116.19
2022-11-14T08:19:01.543Z,101114.38
2022-11-14T08:21:48.781Z,101117.91
2022-11-14T08:24:35.981Z,101110.09
2022-11-14T08:27:23.545Z,101103.97
2022-11-14T08:30:14.004Z,101109.19
2022-11-14T08:33:04.054Z,101107.50
2022-11-14T08:35:51.316Z,101113.59
2022-11-14T08:38:38.853Z,101109.25
2022-11-14T08:41:26.280Z,101106.50
2022-11-14T08:44:13.943Z,101103.16
2022-11-14T08:47:03.967Z,101093.56
2022-11-14T08:49:50.802Z,101093.53
2022-11-14T08:52:38.105Z,101094.41
2022-11-14T08:55:25.224Z,101098.69
2022-11-14T08:58:12.633Z,101088.22
2022-11-14T09:01:05.141Z,101095.97
2022-11-14T09:03:59.403Z,101091.59
2022-11-14T09:06:47.531Z,101088.06
2022-11-14T09:09:34.623Z,101089.75
2022-11-14T09:12:21.632Z,101087.16
2022-11-14T09:15:10.878Z,101076.72
2022-11-14T09:17:59.006Z,101079.22
2022-11-14T09:20:47.664Z,101077.47
2022-11-14T09:23:35.420Z,101075.75
2022-11-14T09:26:22.705Z,101077.44
2022-11-14T09:29:10.071Z,101070.41
2022-11-14T09:31:57.464Z,101070.41
2022-11-14T09:34:45.825Z,101074.69
2022-11-14T09:37:35.032Z,101060.69
2022-11-14T09:40:22.316Z,101072.81
2022-11-14T09:43:35.000Z,101072.66
2022-11-14T09:46:25.320Z,101070.06
2022-11-14T09:49:21.849Z,101055.19
2022-11-14T09:52:18.927Z,101055.06
2022-11-14T09:55:14.936Z,101054.19
2022-11-14T09:58:04.862Z,101041.94
2022-11-14T10:01:01.908Z,101049.78
2022-11-14T10:04:01.299Z,101056.72
2022-11-14T10:07:00.935Z,101056.72
2022-11-14T10:09:57.764Z,101050.63
2022-11-14T10:12:57.853Z,101040.09
2022-11-14T10:15:49.121Z,101048.75
2022-11-14T10:18:47.862Z,101040.84
2022-11-14T10:21:52.993Z,101034.75
2022-11-14T10:24:57.697Z,101030.41
2022-11-14T10:27:58.457Z,101023.44
2022-11-14T10:30:57.077Z,101021.53
2022-11-14T10:33:53.725Z,101021.34
2022-11-14T10:36:50.380Z,101022.31
2022-11-14T10:39:43.355Z,101017.81
2022-11-14T10:42:36.921Z,101009.09
2022-11-14T10:45:31.196Z,101018.66
2022-11-14T10:48:26.025Z,101016.84
2022-11-14T10:51:22.089Z,101009.84
2022-11-14T10:54:17.628Z,101005.53
2022-11-14T10:57:05.003Z,100999.31
2022-11-14T10:59:55.946Z,100990.53
2022-11-14T11:02:53.805Z,100985.22
2022-11-14T11:05:49.830Z,100981.72
2022-11-14T11:09:00.931Z,100980.84
2022-11-14T11:11:55.951Z,100977.28
2022-11-14T11:14:43.870Z,100968.59
2022-11-14T11:17:37.063Z,100958.97
2022-11-14T11:20:32.233Z,100961.50
2022-11-14T11:23:23.968Z,100957.13
2022-11-14T11:26:18.216Z,100951.81
2022-11-14T11:29:09.745Z,100949.06
2022-11-14T11:31:59.149Z,100949.88
2022-11-14T11:34:47.003Z,100949.00
2022-11-14T11:37:41.261Z,100947.28
2022-11-14T11:40:31.570Z,100950.00
2022-11-14T11:43:42.104Z,100936.06
2022-11-14T11:46:36.623Z,100940.53
2022-11-14T11:49:36.620Z,100942.38
2022-11-14T11:52:33.422Z,100935.59
2022-11-14T11:55:27.644Z,100926.97
2022-11-14T11:58:22.309Z,100931.31
2022-11-14T12:01:12.141Z,100932.34
2022-11-14T12:03:59.810Z,100936.78
2022-11-14T12:06:52.242Z,100938.50
2022-11-14T12:10:09.224Z,100933.19
2022-11-14T12:13:13.896Z,100933.19
2022-11-14T12:16:13.237Z,100926.22
2022-11-14T12:19:25.922Z,100922.66
2022-11-14T12:22:26.754Z,100916.38
2022-11-14T12:25:49.097Z,100914.38
2022-11-14T12:29:04.824Z,100908.91
2022-11-14T12:32:04.122Z,100914.03
2022-11-14T12:35:00.301Z,100925.28
2022-11-14T12:37:56.427Z,100911.22
2022-11-14T12:40:58.617Z,100918.22
2022-11-14T12:43:48.885Z,100913.97
2022-11-14T12:47:09.665Z,100906.03
2022-11-14T12:50:02.974Z,100907.78
2022-11-14T12:52:54.084Z,100913.97
2022-11-14T12:56:15.081Z,100913.25
2022-11-14T12:59:27.151Z,100917.66
2022-11-14T13:02:47.610Z,100908.25
2022-11-14T13:05:53.611Z,100911.78
2022-11-14T13:09:00.954Z,100916.91
2022-11-14T13:12:06.769Z,100905.53
2022-11-14T13:15:15.631Z,100910.88
2022-11-14T13:18:33.478Z,100914.22
2022-11-14T13:21:45.666Z,100915.16
2022-11-14T13:25:06.145Z,100900.44
2022-11-14T13:28:18.946Z,100907.41
2022-11-14T13:31:19.567Z,100903.94
2022-11-14T13:34:34.172Z,100897.78
2022-11-14T13:37:36.730Z,100894.31
2022-11-14T13:40:30.068Z,100891.75
2022-11-14T13:43:25.577Z,100893.47
2022-11-14T13:46:28.209Z,100887.38
2022-11-14T13:49:34.261Z,100885.66
2022-11-14T13:52:21.852Z,100882.22
2022-11-14T13:55:09.626Z,100877.88
2022-11-14T13:58:10.185Z,100877.13
2022-11-14T14:01:15.999Z,100879.00
2022-11-14T14:04:18.893Z,100878.28
2022-11-14T14:07:09.677Z,100870.59
2022-11-14T14:10:07.646Z,100860.22
2022-11-14T14:13:08.832Z,100858.53
2022-11-14T14:16:05.703Z,100858.59
2022-11-14T14:19:02.628Z,100855.19
2022-11-14T14:22:00.194Z,100858.75
2022-11-14T14:24:56.176Z,100841.38
2022-11-14T14:27:57.112Z,100846.66
2022-11-14T14:31:02.685Z,100847.63
2022-11-14T14:33:52.498Z,100848.53
2022-11-14T14:36:52.861Z,100830.22
2022-11-14T14:39:40.644Z,100838.97
2022-11-14T14:42:35.125Z,100838.97
2022-11-14T14:45:25.588Z,100838.13
2022-11-14T14:48:15.890Z,100834.66
2022-11-14T14:51:05.393Z,100827.78
2022-11-14T14:53:54.941Z,100828.72
2022-11-14T14:56:54.512Z,100843.56
2022-11-14T14:59:42.496Z,100829.66
2022-11-14T15:02:31.401Z,100826.16
2022-11-14T15:05:26.115Z,100829.72
2022-11-14T15:08:15.391Z,100834.94
2022-11-14T15:11:04.926Z,100822.78
2022-11-14T15:13:55.760Z,100816.72
2022-11-14T15:16:44.193Z,100818.41
2022-11-14T15:19:39.301Z,100823.66
2022-11-14T15:22:29.409Z,100815.06
2022-11-14T15:25:21.503Z,100816.84
2022-11-14T15:28:18.100Z,100816.06
2022-11-14T15:31:06.716Z,100818.63
2022-11-14T15:34:06.228Z,100807.31
2022-11-14T15:37:24.318Z,100806.53
2022-11-14T15:40:22.594Z,100804.81
2022-11-14T15:43:38.521Z,100797.81
2022-11-14T15:46:35.440Z,100803.09
2022-11-14T15:49:25.148Z,100793.56
2022-11-14T15:52:22.213Z,100794.63
2022-11-14T15:55:15.838Z,100792.09
2022-11-14T16:01:17.371Z,100786.78
2022-11-14T16:04:05.092Z,100786.06
2022-11-14T16:06:52.057Z,100782.63
2022-11-14T16:09:39.929Z,100787.88
2022-11-14T16:12:27.205Z,100780.97
2022-11-14T16:15:14.634Z,100780.09
2022-11-14T16:18:05.571Z,100774.84
2022-11-14T16:20:52.766Z,100776.59
2022-11-14T16:23:40.245Z,100767.94
2022-11-14T16:26:27.378Z,100769.63
2022-11-14T16:29:14.914Z,100765.22
2022-11-14T16:32:03.262Z,100763.50
2022-11-14T16:34:51.600Z,100762.69
2022-11-14T16:37:39.313Z,100755.78
2022-11-14T16:40:28.196Z,100766.25
2022-11-14T16:43:16.306Z,100760.16
2022-11-14T16:46:05.813Z,100761.19
2022-11-14T16:48:53.332Z,100756.88
2022-11-14T16:51:50.491Z,100757.72
2022-11-14T16:54:38.019Z,100749.91
2022-11-14T16:57:25.893Z,100746.38
2022-11-14T17:00:14.852Z,100740.34
2022-11-14T17:03:02.141Z,100731.53
2022-11-14T17:05:50.912Z,100730.72
2022-11-14T17:08:40.072Z,100727.28
2022-11-14T17:11:28.120Z,100723.81
2022-11-14T17:14:15.264Z,100722.09
2022-11-14T17:17:02.500Z,100717.78
2022-11-14T17:19:49.713Z,100726.47
2022-11-14T17:22:37.451Z,100727.44
2022-11-14T17:25:26.253Z,100726.63
2022-11-14T17:28:15.018Z,100723.16
2022-11-14T17:31:07.037Z,100728.28
2022-11-14T17:33:54.738Z,100718.00
2022-11-14T17:36:41.576Z,100714.53
2022-11-14T17:39:28.503Z,100714.53
2022-11-14T17:42:17.240Z,100714.53
2022-11-14T17:45:05.116Z,100703.28
2022-11-14T17:47:52.719Z,100708.53
2022-11-14T17:50:40.687Z,100707.75
2022-11-14T17:53:28.063Z,100704.31
2022-11-14T17:56:16.891Z,100702.59
2022-11-14T17:59:05.817Z,100706.97
2022-11-14T18:01:54.702Z,100708.75
2022-11-14T18:04:42.393Z,100701.81
2022-11-14T18:07:33.398Z,100695.78
2022-11-14T18:10:21.385Z,100700.94
2022-11-14T18:13:08.419Z,100697.50
2022-11-14T18:16:02.386Z,100704.38
2022-11-14T18:18:49.296Z,100683.44
2022-11-14T18:21:38.810Z,100682.56
2022-11-14T18:24:26.025Z,100679.94
2022-11-14T18:27:13.399Z,100685.19
2022-11-14T18:30:08.390Z,100673.91
2022-11-14T18:33:08.870Z,100685.22
2022-11-14T18:35:57.811Z,100669.63
2022-11-14T18:38:45.474Z,100674.78
2022-11-14T18:41:32.668Z,100673.09
2022-11-14T18:44:21.311Z,100665.25
2022-11-14T18:47:08.579Z,100673.00
2022-11-14T18:49:59.561Z,100673.13
2022-11-14T18:52:47.031Z,100680.06
2022-11-14T18:55:34.107Z,100676.59
2022-11-14T18:58:21.142Z,100660.94
2022-11-14T19:01:12.810Z,100666.97
2022-11-14T19:04:02.107Z,100667.88
2022-11-14T19:06:50.836Z,100660.94
2022-11-14T19:09:37.989Z,100652.19
2022-11-14T19:12:25.780Z,100656.47
2022-11-14T19:15:13.987Z,100652.13
2022-11-14T19:18:00.908Z,100658.19
2022-11-14T19:20:57.531Z,100652.13
2022-11-14T19:23:46.197Z,100651.31
2022-11-14T19:26:33.450Z,100656.50
2022-11-14T19:29:21.270Z,100649.50
2022-11-14T19:32:09.845Z,100645.16
2022-11-14T19:34:56.730Z,100640.78
2022-11-14T19:37:43.958Z,100639.00
2022-11-14T19:40:32.388Z,100642.34
2022-11-14T19:43:20.224Z,100642.34
2022-11-14T19:46:07.909Z,100643.13
2022-11-14T19:48:57.505Z,100644.97
2022-11-14T19:51:44.881Z,100636.38
2022-11-14T19:54:32.011Z,100640.78
2022-11-14T19:57:20.378Z,100628.56
2022-11-14T20:00:08.968Z,100630.34
2022-11-14T20:02:56.640Z,100623.31
2022-11-14T20:05:44.107Z,100629.47
2022-11-14T20:08:31.758Z,100623.34
2022-11-14T20:11:19.803Z,100613.81
2022-11-14T20:14:08.361Z,100613.78
2022-11-14T20:16:55.576Z,100612.88
2022-11-14T20:19:42.782Z,100619.75
2022-11-14T20:22:29.482Z,100611.00
2022-11-14T20:25:17.185Z,100613.81
2022-11-14T20:28:08.089Z,100608.66
2022-11-14T20:30:56.922Z,100606.00
2022-11-14T20:33:45.997Z,100606.88
2022-11-14T20:36:56.585Z,100596.34
2022-11-14T20:39:40.476Z,100600.69
2022-11-14T20:42:27.562Z,100590.25
2022-11-14T20:45:14.813Z,100581.72
2022-11-14T20:48:03.834Z,100579.03
2022-11-14T20:50:50.928Z,100577.09
2022-11-14T20:53:37.980Z,100565.97
2022-11-14T20:56:25.120Z,100564.19
2022-11-14T20:59:12.363Z,100551.13
2022-11-14T21:01:59.897Z,100555.53
2022-11-14T21:04:48.871Z,100552.06
2022-11-14T21:07:35.791Z,100553.78
2022-11-14T21:10:40.036Z,100545.94
2022-11-14T21:13:44.791Z,100544.25
2022-11-14T21:16:34.448Z,100535.56
2022-11-14T21:19:22.886Z,100529.44
2022-11-14T21:22:11.102Z,100529.41
2022-11-14T21:24:58.339Z,100533.69
2022-11-14T21:27:46.022Z,100531.16
2022-11-14T21:30:34.705Z,100523.38
2022-11-14T21:33:21.722Z,100528.50
2022-11-14T21:36:30.140Z,100534.41
2022-11-14T21:39:18.439Z,100525.03
2022-11-14T21:42:06.340Z,100519.00
2022-11-14T21:44:53.475Z,100516.41
2022-11-14T21:47:40.466Z,100516.50
2022-11-14T21:50:27.538Z,100509.63
2022-11-14T21:53:16.281Z,100516.56
2022-11-14T21:56:12.969Z,100510.50
2022-11-14T21:59:14.879Z,100514.88
2022-11-14T22:02:19.841Z,100510.66
2022-11-14T22:05:07.288Z,100515.03
2022-11-14T22:07:55.100Z,100508.06
2022-11-14T22:10:42.392Z,100508.00
2022-11-14T22:13:32.825Z,100504.53
2022-11-14T22:16:21.058Z,100501.03
2022-11-14T22:19:10.045Z,100506.19
2022-11-14T22:21:57.755Z,100498.31
2022-11-14T22:24:45.161Z,100505.19
2022-11-14T22:27:32.547Z,100494.78
2022-11-14T22:30:21.370Z,100492.19
2022-11-14T22:33:08.787Z,100499.25
2022-11-14T22:35:56.352Z,100514.13
2022-11-14T22:38:44.625Z,100495.91
2022-11-14T22:41:33.977Z,100495.94
2022-11-14T22:44:20.949Z,100490.69
2022-11-14T22:47:09.919Z,100497.63
2022-11-14T22:49:56.973Z,100485.50
2022-11-14T22:52:43.986Z,100482.88
2022-11-14T22:55:31.051Z,100481.13
2022-11-14T22:58:18.118Z,100482.06
2022-11-14T23:01:12.779Z,100484.75
2022-11-14T23:04:03.507Z,100485.66
2022-11-14T23:06:53.173Z,100477.81
2022-11-14T23:09:40.110Z,100476.13
2022-11-14T23:12:27.667Z,100476.13
2022-11-14T23:15:15.068Z,100470.06
2022-11-14T23:18:02.771Z,100473.50
2022-11-14T23:20:51.818Z,100462.13
2022-11-14T23:23:38.853Z,100462.91
2022-11-14T23:26:26.839Z,100453.38
2022-11-14T23:29:15.233Z,100444.81
2022-11-14T23:32:02.591Z,100453.59
2022-11-14T23:34:49.858Z,100452.75
2022-11-14T23:37:38.288Z,100450.22
2022-11-14T23:40:25.656Z,100445.03
2022-11-14T23:43:12.733Z,100440.69
2022-11-14T23:46:00.477Z,100439.00
2022-11-14T23:48:47.849Z,100438.06
2022-11-14T23:51:35.003Z,100438.91
2022-11-14T23:54:23.549Z,100438.91
2022-11-14T23:57:10.997Z,100423.31
2022-11-14T23:59:58.136Z,100423.38
